sensor_id;sensor_type;location;lat;lon;timestamp;temperature;humidity
52209;DHT22;38507;53.132;6.394;2023-03-31T00:01:28;10.20;99.90
52209;DHT22;38507;53.132;6.394;2023-03-31T00:03:54;10.30;99.90
52209;DHT22;38507;53.132;6.394;2023-03-31T00:06:31;10.10;99.90
52209;DHT22;38507;53.132;6.394;2023-03-31T00:08:57;10.30;99.90
52209;DHT22;38507;53.132;6.394;2023-03-31T00:11:27;10.10;99.90
52209;DHT22;38507;53.132;6.394;2023-03-31T00:13:53;10.10;99.90
52209;DHT22;38507;53.132;6.394;2023-03-31T00:16:18;10.10;99.90
52209;DHT22;38507;53.132;6.394;2023-03-31T00:18:44;10.20;99.90
52209;DHT22;38507;53.132;6.394;2023-03-31T00:21:17;10.10;99.90
52209;DHT22;38507;53.132;6.394;2023-03-31T00:24:05;10.10;99.90
52209;DHT22;38507;53.132;6.394;2023-03-31T00:26:32;10.00;99.90
52209;DHT22;38507;53.132;6.394;2023-03-31T00:28:58;10.00;99.90
52209;DHT22;38507;53.132;6.394;2023-03-31T00:31:25;10.50;99.90
52209;DHT22;38507;53.132;6.394;2023-03-31T00:33:52;10.30;99.90
52209;DHT22;38507;53.132;6.394;2023-03-31T00:36:18;10.00;99.90
52209;DHT22;38507;53.132;6.394;2023-03-31T00:38:48;10.00;99.90
52209;DHT22;38507;53.132;6.394;2023-03-31T00:41:16;9.90;99.90
52209;DHT22;38507;53.132;6.394;2023-03-31T00:46:29;9.80;99.90
52209;DHT22;38507;53.132;6.394;2023-03-31T00:48:58;10.10;99.90
52209;DHT22;38507;53.132;6.394;2023-03-31T00:51:27;10.10;99.90
52209;DHT22;38507;53.132;6.394;2023-03-31T00:53:57;9.70;99.90
52209;DHT22;38507;53.132;6.394;2023-03-31T00:56:26;9.70;99.90
52209;DHT22;38507;53.132;6.394;2023-03-31T00:58:55;9.80;99.90
52209;DHT22;38507;53.132;6.394;2023-03-31T01:01:23;9.60;99.90
52209;DHT22;38507;53.132;6.394;2023-03-31T01:03:49;9.60;99.90
52209;DHT22;38507;53.132;6.394;2023-03-31T01:06:17;9.60;99.90
52209;DHT22;38507;53.132;6.394;2023-03-31T01:08:46;9.80;99.90
52209;DHT22;38507;53.132;6.394;2023-03-31T01:11:14;9.50;99.90
52209;DHT22;38507;53.132;6.394;2023-03-31T01:13:41;9.50;99.90
52209;DHT22;38507;53.132;6.394;2023-03-31T01:16:08;9.40;99.90
52209;DHT22;38507;53.132;6.394;2023-03-31T01:18:34;9.40;99.90
52209;DHT22;38507;53.132;6.394;2023-03-31T01:24:24;9.40;99.90
52209;DHT22;38507;53.132;6.394;2023-03-31T01:27:22;9.30;99.90
52209;DHT22;38507;53.132;6.394;2023-03-31T01:30:24;9.30;99.90
52209;DHT22;38507;53.132;6.394;2023-03-31T01:33:11;9.30;99.90
52209;DHT22;38507;53.132;6.394;2023-03-31T01:44:44;9.10;99.90
52209;DHT22;38507;53.132;6.394;2023-03-31T01:47:45;9.10;99.90
52209;DHT22;38507;53.132;6.394;2023-03-31T01:50:30;9.10;99.90
52209;DHT22;38507;53.132;6.394;2023-03-31T01:53:12;9.10;99.90
52209;DHT22;38507;53.132;6.394;2023-03-31T01:55:49;9.10;99.90
52209;DHT22;38507;53.132;6.394;2023-03-31T01:58:34;9.10;99.90
52209;DHT22;38507;53.132;6.394;2023-03-31T02:01:14;9.10;99.90
52209;DHT22;38507;53.132;6.394;2023-03-31T02:03:48;9.00;99.90
52209;DHT22;38507;53.132;6.394;2023-03-31T02:06:20;9.50;99.90
52209;DHT22;38507;53.132;6.394;2023-03-31T02:08:52;9.00;99.90
52209;DHT22;38507;53.132;6.394;2023-03-31T02:11:21;9.00;99.90
52209;DHT22;38507;53.132;6.394;2023-03-31T02:13:48;9.20;99.90
52209;DHT22;38507;53.132;6.394;2023-03-31T02:16:21;9.00;99.90
52209;DHT22;38507;53.132;6.394;2023-03-31T02:18:51;9.00;99.90
52209;DHT22;38507;53.132;6.394;2023-03-31T02:21:19;9.00;99.90
52209;DHT22;38507;53.132;6.394;2023-03-31T02:23:48;9.30;99.90
52209;DHT22;38507;53.132;6.394;2023-03-31T02:26:22;9.10;99.90
52209;DHT22;38507;53.132;6.394;2023-03-31T02:28:49;9.10;99.90
52209;DHT22;38507;53.132;6.394;2023-03-31T02:33:59;9.10;99.90
52209;DHT22;38507;53.132;6.394;2023-03-31T02:36:25;9.10;99.90
52209;DHT22;38507;53.132;6.394;2023-03-31T02:38:56;9.10;99.90
52209;DHT22;38507;53.132;6.394;2023-03-31T02:41:23;9.10;99.90
52209;DHT22;38507;53.132;6.394;2023-03-31T02:43:49;9.20;99.90
52209;DHT22;38507;53.132;6.394;2023-03-31T02:46:15;9.20;99.90
52209;DHT22;38507;53.132;6.394;2023-03-31T02:48:44;9.30;99.90
52209;DHT22;38507;53.132;6.394;2023-03-31T02:51:55;9.20;99.90
52209;DHT22;38507;53.132;6.394;2023-03-31T02:55:07;9.20;99.90
52209;DHT22;38507;53.132;6.394;2023-03-31T02:57:35;9.20;99.90
52209;DHT22;38507;53.132;6.394;2023-03-31T03:02:50;9.20;99.90
52209;DHT22;38507;53.132;6.394;2023-03-31T03:16:05;9.30;99.90
52209;DHT22;38507;53.132;6.394;2023-03-31T03:18:33;9.30;99.90
52209;DHT22;38507;53.132;6.394;2023-03-31T03:20:59;9.30;99.90
52209;DHT22;38507;53.132;6.394;2023-03-31T03:23:25;9.30;99.90
52209;DHT22;38507;53.132;6.394;2023-03-31T03:25:50;9.20;99.90
52209;DHT22;38507;53.132;6.394;2023-03-31T03:28:16;9.30;99.90
52209;DHT22;38507;53.132;6.394;2023-03-31T03:30:42;9.20;99.90
52209;DHT22;38507;53.132;6.394;2023-03-31T03:33:07;9.30;99.90
52209;DHT22;38507;53.132;6.394;2023-03-31T03:35:34;9.20;99.90
52209;DHT22;38507;53.132;6.394;2023-03-31T03:38:00;9.20;99.90
52209;DHT22;38507;53.132;6.394;2023-03-31T03:40:26;9.20;99.90
52209;DHT22;38507;53.132;6.394;2023-03-31T03:42:51;9.20;99.90
52209;DHT22;38507;53.132;6.394;2023-03-31T03:45:17;9.20;99.90
52209;DHT22;38507;53.132;6.394;2023-03-31T03:47:42;9.20;99.90
52209;DHT22;38507;53.132;6.394;2023-03-31T03:50:09;9.50;99.90
52209;DHT22;38507;53.132;6.394;2023-03-31T03:52:34;9.30;99.90
52209;DHT22;38507;53.132;6.394;2023-03-31T03:55:00;9.30;99.90
52209;DHT22;38507;53.132;6.394;2023-03-31T03:57:26;9.30;99.90
52209;DHT22;38507;53.132;6.394;2023-03-31T03:59:52;9.30;99.90
52209;DHT22;38507;53.132;6.394;2023-03-31T04:02:17;9.40;99.90
52209;DHT22;38507;53.132;6.394;2023-03-31T04:04:43;9.60;99.90
52209;DHT22;38507;53.132;6.394;2023-03-31T04:07:09;9.50;99.90
52209;DHT22;38507;53.132;6.394;2023-03-31T04:09:34;9.40;99.90
52209;DHT22;38507;53.132;6.394;2023-03-31T04:12:00;9.70;99.90
52209;DHT22;38507;53.132;6.394;2023-03-31T04:14:26;9.70;99.90
52209;DHT22;38507;53.132;6.394;2023-03-31T04:16:52;9.50;99.90
52209;DHT22;38507;53.132;6.394;2023-03-31T04:19:21;9.40;99.90
52209;DHT22;38507;53.132;6.394;2023-03-31T04:21:50;9.50;99.90
52209;DHT22;38507;53.132;6.394;2023-03-31T04:24:25;9.50;99.90
52209;DHT22;38507;53.132;6.394;2023-03-31T04:26:56;9.50;99.90
52209;DHT22;38507;53.132;6.394;2023-03-31T04:29:22;9.60;99.90
52209;DHT22;38507;53.132;6.394;2023-03-31T04:31:52;9.50;99.90
52209;DHT22;38507;53.132;6.394;2023-03-31T04:34:18;9.60;99.90
52209;DHT22;38507;53.132;6.394;2023-03-31T04:36:46;9.50;99.90
52209;DHT22;38507;53.132;6.394;2023-03-31T04:39:13;9.80;99.90
52209;DHT22;38507;53.132;6.394;2023-03-31T04:41:39;9.50;99.90
52209;DHT22;38507;53.132;6.394;2023-03-31T04:44:05;9.50;99.90
52209;DHT22;38507;53.132;6.394;2023-03-31T04:46:32;9.50;99.90
52209;DHT22;38507;53.132;6.394;2023-03-31T04:48:58;9.90;99.90
52209;DHT22;38507;53.132;6.394;2023-03-31T04:51:25;9.50;99.90
52209;DHT22;38507;53.132;6.394;2023-03-31T04:53:51;9.60;99.90
52209;DHT22;38507;53.132;6.394;2023-03-31T04:56:16;9.50;99.90
52209;DHT22;38507;53.132;6.394;2023-03-31T04:58:42;9.60;99.90
52209;DHT22;38507;53.132;6.394;2023-03-31T05:01:09;9.50;99.90
52209;DHT22;38507;53.132;6.394;2023-03-31T05:03:38;9.70;99.90
52209;DHT22;38507;53.132;6.394;2023-03-31T05:06:04;9.70;99.90
52209;DHT22;38507;53.132;6.394;2023-03-31T05:08:29;9.60;99.90
52209;DHT22;38507;53.132;6.394;2023-03-31T05:10:55;9.60;99.90
52209;DHT22;38507;53.132;6.394;2023-03-31T05:13:22;9.60;99.90
52209;DHT22;38507;53.132;6.394;2023-03-31T05:15:48;9.60;99.90
52209;DHT22;38507;53.132;6.394;2023-03-31T05:18:16;9.70;99.90
52209;DHT22;38507;53.132;6.394;2023-03-31T05:20:42;9.60;99.90
52209;DHT22;38507;53.132;6.394;2023-03-31T05:23:08;9.60;99.90
52209;DHT22;38507;53.132;6.394;2023-03-31T05:25:33;9.60;99.90
52209;DHT22;38507;53.132;6.394;2023-03-31T05:28:00;9.70;99.90
52209;DHT22;38507;53.132;6.394;2023-03-31T05:30:26;9.60;99.90
52209;DHT22;38507;53.132;6.394;2023-03-31T05:32:52;9.60;99.90
52209;DHT22;38507;53.132;6.394;2023-03-31T05:35:18;9.70;99.90
52209;DHT22;38507;53.132;6.394;2023-03-31T05:37:44;9.70;99.90
52209;DHT22;38507;53.132;6.394;2023-03-31T05:40:10;9.60;99.90
52209;DHT22;38507;53.132;6.394;2023-03-31T05:42:36;9.60;99.90
52209;DHT22;38507;53.132;6.394;2023-03-31T05:45:03;9.70;99.90
52209;DHT22;38507;53.132;6.394;2023-03-31T05:47:29;9.70;99.90
52209;DHT22;38507;53.132;6.394;2023-03-31T05:49:55;9.70;99.90
52209;DHT22;38507;53.132;6.394;2023-03-31T05:52:20;10.00;99.90
52209;DHT22;38507;53.132;6.394;2023-03-31T05:54:46;9.70;99.90
52209;DHT22;38507;53.132;6.394;2023-03-31T05:57:12;9.70;99.90
52209;DHT22;38507;53.132;6.394;2023-03-31T05:59:37;9.70;99.90
52209;DHT22;38507;53.132;6.394;2023-03-31T06:02:05;9.70;99.90
52209;DHT22;38507;53.132;6.394;2023-03-31T06:04:31;9.70;99.90
52209;DHT22;38507;53.132;6.394;2023-03-31T06:06:57;9.80;99.90
52209;DHT22;38507;53.132;6.394;2023-03-31T06:09:24;10.10;99.90
52209;DHT22;38507;53.132;6.394;2023-03-31T06:11:50;9.70;99.90
52209;DHT22;38507;53.132;6.394;2023-03-31T06:14:15;9.70;99.90
52209;DHT22;38507;53.132;6.394;2023-03-31T06:16:41;9.70;99.90
52209;DHT22;38507;53.132;6.394;2023-03-31T06:19:07;9.70;99.90
52209;DHT22;38507;53.132;6.394;2023-03-31T06:21:33;9.70;99.90
52209;DHT22;38507;53.132;6.394;2023-03-31T06:23:59;9.90;99.90
52209;DHT22;38507;53.132;6.394;2023-03-31T06:26:25;9.90;99.90
52209;DHT22;38507;53.132;6.394;2023-03-31T06:28:51;9.70;99.90
52209;DHT22;38507;53.132;6.394;2023-03-31T06:31:19;10.20;99.90
52209;DHT22;38507;53.132;6.394;2023-03-31T06:33:46;9.70;99.90
52209;DHT22;38507;53.132;6.394;2023-03-31T06:36:14;9.70;99.90
52209;DHT22;38507;53.132;6.394;2023-03-31T06:38:40;9.90;99.90
52209;DHT22;38507;53.132;6.394;2023-03-31T06:41:08;9.80;99.90
52209;DHT22;38507;53.132;6.394;2023-03-31T06:43:34;9.70;99.90
52209;DHT22;38507;53.132;6.394;2023-03-31T06:46:00;9.90;99.90
52209;DHT22;38507;53.132;6.394;2023-03-31T06:48:26;9.80;99.90
52209;DHT22;38507;53.132;6.394;2023-03-31T06:50:53;9.80;99.90
52209;DHT22;38507;53.132;6.394;2023-03-31T06:53:19;9.80;99.90
52209;DHT22;38507;53.132;6.394;2023-03-31T06:55:46;9.80;99.90
52209;DHT22;38507;53.132;6.394;2023-03-31T06:58:12;10.00;99.90
52209;DHT22;38507;53.132;6.394;2023-03-31T07:00:38;9.70;99.90
52209;DHT22;38507;53.132;6.394;2023-03-31T07:03:04;10.40;99.90
52209;DHT22;38507;53.132;6.394;2023-03-31T07:05:31;9.80;99.90
52209;DHT22;38507;53.132;6.394;2023-03-31T07:07:58;9.90;99.90
52209;DHT22;38507;53.132;6.394;2023-03-31T07:10:26;10.20;99.90
52209;DHT22;38507;53.132;6.394;2023-03-31T07:12:52;9.90;99.90
52209;DHT22;38507;53.132;6.394;2023-03-31T07:15:18;9.80;99.90
52209;DHT22;38507;53.132;6.394;2023-03-31T07:17:44;9.80;99.90
52209;DHT22;38507;53.132;6.394;2023-03-31T07:20:11;9.80;99.90
52209;DHT22;38507;53.132;6.394;2023-03-31T07:22:38;9.80;99.90
52209;DHT22;38507;53.132;6.394;2023-03-31T07:25:06;9.80;99.90
52209;DHT22;38507;53.132;6.394;2023-03-31T07:27:32;9.80;99.90
52209;DHT22;38507;53.132;6.394;2023-03-31T07:29:58;9.80;99.90
52209;DHT22;38507;53.132;6.394;2023-03-31T07:32:23;10.00;99.90
52209;DHT22;38507;53.132;6.394;2023-03-31T07:34:49;10.00;99.90
52209;DHT22;38507;53.132;6.394;2023-03-31T07:37:15;9.80;99.90
52209;DHT22;38507;53.132;6.394;2023-03-31T07:39:40;9.90;99.90
52209;DHT22;38507;53.132;6.394;2023-03-31T07:42:06;9.90;99.90
52209;DHT22;38507;53.132;6.394;2023-03-31T07:44:35;10.00;99.90
52209;DHT22;38507;53.132;6.394;2023-03-31T07:47:02;9.90;99.90
52209;DHT22;38507;53.132;6.394;2023-03-31T07:49:34;9.90;99.90
52209;DHT22;38507;53.132;6.394;2023-03-31T07:52:00;9.90;99.90
52209;DHT22;38507;53.132;6.394;2023-03-31T07:54:27;9.90;99.90
52209;DHT22;38507;53.132;6.394;2023-03-31T07:56:52;9.90;99.90
52209;DHT22;38507;53.132;6.394;2023-03-31T07:59:18;10.20;99.90
52209;DHT22;38507;53.132;6.394;2023-03-31T08:01:44;10.60;99.90
52209;DHT22;38507;53.132;6.394;2023-03-31T08:04:13;10.20;99.90
52209;DHT22;38507;53.132;6.394;2023-03-31T08:06:38;10.00;99.90
52209;DHT22;38507;53.132;6.394;2023-03-31T08:09:05;9.90;99.90
52209;DHT22;38507;53.132;6.394;2023-03-31T08:11:32;9.90;99.90
52209;DHT22;38507;53.132;6.394;2023-03-31T08:13:58;10.00;99.90
52209;DHT22;38507;53.132;6.394;2023-03-31T08:16:24;10.20;99.90
52209;DHT22;38507;53.132;6.394;2023-03-31T08:18:49;10.30;99.90
52209;DHT22;38507;53.132;6.394;2023-03-31T08:21:15;10.00;99.90
52209;DHT22;38507;53.132;6.394;2023-03-31T08:23:41;10.20;99.90
52209;DHT22;38507;53.132;6.394;2023-03-31T08:26:09;10.00;99.90
52209;DHT22;38507;53.132;6.394;2023-03-31T08:28:34;10.00;99.90
52209;DHT22;38507;53.132;6.394;2023-03-31T08:31:05;10.10;99.90
52209;DHT22;38507;53.132;6.394;2023-03-31T08:33:31;10.00;99.90
52209;DHT22;38507;53.132;6.394;2023-03-31T08:36:04;10.10;99.90
52209;DHT22;38507;53.132;6.394;2023-03-31T08:38:32;10.10;99.90
52209;DHT22;38507;53.132;6.394;2023-03-31T08:40:59;10.10;99.90
52209;DHT22;38507;53.132;6.394;2023-03-31T08:43:30;10.10;99.90
52209;DHT22;38507;53.132;6.394;2023-03-31T08:45:58;10.10;99.90
52209;DHT22;38507;53.132;6.394;2023-03-31T08:48:30;10.10;99.90
52209;DHT22;38507;53.132;6.394;2023-03-31T08:51:19;10.10;99.90
52209;DHT22;38507;53.132;6.394;2023-03-31T08:53:51;10.10;99.90
52209;DHT22;38507;53.132;6.394;2023-03-31T08:56:21;10.10;99.90
52209;DHT22;38507;53.132;6.394;2023-03-31T08:58:51;10.10;99.90
52209;DHT22;38507;53.132;6.394;2023-03-31T09:06:40;10.20;99.90
52209;DHT22;38507;53.132;6.394;2023-03-31T09:09:11;10.20;99.90
52209;DHT22;38507;53.132;6.394;2023-03-31T09:11:47;10.70;99.90
52209;DHT22;38507;53.132;6.394;2023-03-31T09:14:25;10.30;99.90
52209;DHT22;38507;53.132;6.394;2023-03-31T09:16:53;10.40;99.90
52209;DHT22;38507;53.132;6.394;2023-03-31T09:19:47;10.50;99.90
52209;DHT22;38507;53.132;6.394;2023-03-31T09:22:19;10.50;99.90
52209;DHT22;38507;53.132;6.394;2023-03-31T09:27:23;10.50;99.90
52209;DHT22;38507;53.132;6.394;2023-03-31T09:29:55;10.80;99.90
52209;DHT22;38507;53.132;6.394;2023-03-31T09:32:28;10.60;99.90
52209;DHT22;38507;53.132;6.394;2023-03-31T09:34:59;10.90;99.90
52209;DHT22;38507;53.132;6.394;2023-03-31T09:37:30;11.00;99.90
52209;DHT22;38507;53.132;6.394;2023-03-31T09:40:02;11.20;99.90
52209;DHT22;38507;53.132;6.394;2023-03-31T09:42:33;10.80;99.90
52209;DHT22;38507;53.132;6.394;2023-03-31T09:44:59;10.90;99.90
52209;DHT22;38507;53.132;6.394;2023-03-31T09:47:32;11.00;99.90
52209;DHT22;38507;53.132;6.394;2023-03-31T09:50:03;11.10;99.90
52209;DHT22;38507;53.132;6.394;2023-03-31T09:52:43;11.10;99.90
52209;DHT22;38507;53.132;6.394;2023-03-31T09:55:36;11.10;99.90
52209;DHT22;38507;53.132;6.394;2023-03-31T09:58:11;11.10;99.90
52209;DHT22;38507;53.132;6.394;2023-03-31T10:00:40;11.10;99.90
52209;DHT22;38507;53.132;6.394;2023-03-31T10:03:09;11.20;99.90
52209;DHT22;38507;53.132;6.394;2023-03-31T10:05:38;11.20;99.90
52209;DHT22;38507;53.132;6.394;2023-03-31T10:11:23;11.20;99.90
52209;DHT22;38507;53.132;6.394;2023-03-31T10:13:47;11.20;99.90
52209;DHT22;38507;53.132;6.394;2023-03-31T10:16:44;11.10;99.90
52209;DHT22;38507;53.132;6.394;2023-03-31T10:19:21;11.20;99.90
52209;DHT22;38507;53.132;6.394;2023-03-31T10:21:54;11.20;99.90
52209;DHT22;38507;53.132;6.394;2023-03-31T10:24:20;11.10;99.90
52209;DHT22;38507;53.132;6.394;2023-03-31T10:26:49;11.20;99.90
52209;DHT22;38507;53.132;6.394;2023-03-31T10:29:21;11.20;99.90
52209;DHT22;38507;53.132;6.394;2023-03-31T10:31:50;11.10;99.90
52209;DHT22;38507;53.132;6.394;2023-03-31T10:34:17;11.40;99.90
52209;DHT22;38507;53.132;6.394;2023-03-31T10:36:48;11.30;99.90
52209;DHT22;38507;53.132;6.394;2023-03-31T10:39:15;11.30;99.90
52209;DHT22;38507;53.132;6.394;2023-03-31T10:41:42;11.60;99.90
52209;DHT22;38507;53.132;6.394;2023-03-31T10:47:19;11.50;99.90
52209;DHT22;38507;53.132;6.394;2023-03-31T10:49:48;11.70;99.90
52209;DHT22;38507;53.132;6.394;2023-03-31T10:52:24;11.70;99.90
52209;DHT22;38507;53.132;6.394;2023-03-31T10:54:55;11.80;99.90
52209;DHT22;38507;53.132;6.394;2023-03-31T10:57:34;11.90;99.90
52209;DHT22;38507;53.132;6.394;2023-03-31T11:00:13;11.90;99.90
52209;DHT22;38507;53.132;6.394;2023-03-31T11:08:19;12.10;99.90
52209;DHT22;38507;53.132;6.394;2023-03-31T11:13:51;12.30;99.90
52209;DHT22;38507;53.132;6.394;2023-03-31T11:19:32;12.50;99.90
52209;DHT22;38507;53.132;6.394;2023-03-31T11:29:50;12.70;99.90
52209;DHT22;38507;53.132;6.394;2023-03-31T11:43:04;12.70;99.90
52209;DHT22;38507;53.132;6.394;2023-03-31T11:46:00;12.80;99.90
52209;DHT22;38507;53.132;6.394;2023-03-31T11:48:54;12.70;99.90
52209;DHT22;38507;53.132;6.394;2023-03-31T11:51:36;12.70;99.90
52209;DHT22;38507;53.132;6.394;2023-03-31T11:54:05;12.60;99.90
52209;DHT22;38507;53.132;6.394;2023-03-31T11:56:38;12.40;99.90
52209;DHT22;38507;53.132;6.394;2023-03-31T11:59:05;12.40;99.90
52209;DHT22;38507;53.132;6.394;2023-03-31T12:01:53;12.40;99.90
52209;DHT22;38507;53.132;6.394;2023-03-31T12:06:59;12.30;99.90
52209;DHT22;38507;53.132;6.394;2023-03-31T12:12:36;12.30;99.90
52209;DHT22;38507;53.132;6.394;2023-03-31T12:15:26;12.30;99.90
52209;DHT22;38507;53.132;6.394;2023-03-31T12:18:17;12.30;99.90
52209;DHT22;38507;53.132;6.394;2023-03-31T12:20:56;12.30;99.90
52209;DHT22;38507;53.132;6.394;2023-03-31T12:23:27;12.30;99.90
52209;DHT22;38507;53.132;6.394;2023-03-31T12:28:46;12.20;99.90
52209;DHT22;38507;53.132;6.394;2023-03-31T12:31:21;12.50;99.90
52209;DHT22;38507;53.132;6.394;2023-03-31T12:34:10;12.60;99.90
52209;DHT22;38507;53.132;6.394;2023-03-31T12:36:44;12.70;99.90
52209;DHT22;38507;53.132;6.394;2023-03-31T12:42:47;12.80;99.90
52209;DHT22;38507;53.132;6.394;2023-03-31T12:48:03;13.00;99.90
52209;DHT22;38507;53.132;6.394;2023-03-31T12:55:55;13.00;99.90
52209;DHT22;38507;53.132;6.394;2023-03-31T13:01:21;13.00;99.90
52209;DHT22;38507;53.132;6.394;2023-03-31T13:03:52;13.00;99.90
52209;DHT22;38507;53.132;6.394;2023-03-31T13:14:23;13.50;99.90
52209;DHT22;38507;53.132;6.394;2023-03-31T13:17:11;13.70;99.90
52209;DHT22;38507;53.132;6.394;2023-03-31T13:19:39;13.70;99.90
52209;DHT22;38507;53.132;6.394;2023-03-31T13:22:05;13.60;99.90
52209;DHT22;38507;53.132;6.394;2023-03-31T13:24:32;13.60;99.90
52209;DHT22;38507;53.132;6.394;2023-03-31T13:27:44;13.50;99.90
52209;DHT22;38507;53.132;6.394;2023-03-31T13:33:54;13.40;99.90
52209;DHT22;38507;53.132;6.394;2023-03-31T13:41:42;12.90;99.90
52209;DHT22;38507;53.132;6.394;2023-03-31T13:47:15;12.70;99.90
52209;DHT22;38507;53.132;6.394;2023-03-31T13:53:13;12.40;99.90
52209;DHT22;38507;53.132;6.394;2023-03-31T13:59:18;12.20;99.90
52209;DHT22;38507;53.132;6.394;2023-03-31T14:01:58;12.30;99.90
52209;DHT22;38507;53.132;6.394;2023-03-31T14:07:08;12.50;99.90
52209;DHT22;38507;53.132;6.394;2023-03-31T14:09:40;12.50;99.90
52209;DHT22;38507;53.132;6.394;2023-03-31T14:12:33;12.50;99.90
52209;DHT22;38507;53.132;6.394;2023-03-31T14:15:00;12.50;99.90
52209;DHT22;38507;53.132;6.394;2023-03-31T14:17:32;12.50;99.90
52209;DHT22;38507;53.132;6.394;2023-03-31T14:25:45;12.80;99.90
52209;DHT22;38507;53.132;6.394;2023-03-31T14:36:57;13.30;99.90
52209;DHT22;38507;53.132;6.394;2023-03-31T14:39:27;13.40;99.90
52209;DHT22;38507;53.132;6.394;2023-03-31T14:41:57;13.50;99.90
52209;DHT22;38507;53.132;6.394;2023-03-31T14:44:27;13.40;99.90
52209;DHT22;38507;53.132;6.394;2023-03-31T14:46:55;13.30;99.90
52209;DHT22;38507;53.132;6.394;2023-03-31T14:49:28;13.30;99.90
52209;DHT22;38507;53.132;6.394;2023-03-31T14:52:00;13.30;99.90
52209;DHT22;38507;53.132;6.394;2023-03-31T14:54:33;13.20;99.90
52209;DHT22;38507;53.132;6.394;2023-03-31T14:56:59;13.20;99.90
52209;DHT22;38507;53.132;6.394;2023-03-31T14:59:30;13.20;99.90
52209;DHT22;38507;53.132;6.394;2023-03-31T15:01:59;13.20;99.90
52209;DHT22;38507;53.132;6.394;2023-03-31T15:04:28;13.60;99.90
52209;DHT22;38507;53.132;6.394;2023-03-31T15:06:58;13.20;99.90
52209;DHT22;38507;53.132;6.394;2023-03-31T15:09:31;13.20;99.90
52209;DHT22;38507;53.132;6.394;2023-03-31T15:12:07;13.30;99.90
52209;DHT22;38507;53.132;6.394;2023-03-31T15:14:46;13.30;99.90
52209;DHT22;38507;53.132;6.394;2023-03-31T15:17:27;13.20;99.90
52209;DHT22;38507;53.132;6.394;2023-03-31T15:19:57;13.20;99.90
52209;DHT22;38507;53.132;6.394;2023-03-31T15:22:25;13.10;99.90
52209;DHT22;38507;53.132;6.394;2023-03-31T15:24:52;13.00;99.90
52209;DHT22;38507;53.132;6.394;2023-03-31T15:27:37;12.90;99.90
52209;DHT22;38507;53.132;6.394;2023-03-31T15:30:06;12.90;99.90
52209;DHT22;38507;53.132;6.394;2023-03-31T15:32:37;12.90;99.90
52209;DHT22;38507;53.132;6.394;2023-03-31T15:35:05;13.00;99.90
52209;DHT22;38507;53.132;6.394;2023-03-31T15:37:41;12.90;99.90
52209;DHT22;38507;53.132;6.394;2023-03-31T15:42:48;12.80;99.90
52209;DHT22;38507;53.132;6.394;2023-03-31T15:47:51;12.70;99.90
52209;DHT22;38507;53.132;6.394;2023-03-31T15:50:20;12.70;99.90
52209;DHT22;38507;53.132;6.394;2023-03-31T15:52:52;12.60;99.90
52209;DHT22;38507;53.132;6.394;2023-03-31T15:57:48;12.60;99.90
52209;DHT22;38507;53.132;6.394;2023-03-31T16:03:03;12.70;99.90
52209;DHT22;38507;53.132;6.394;2023-03-31T16:05:40;12.80;99.90
52209;DHT22;38507;53.132;6.394;2023-03-31T16:08:12;12.80;99.90
52209;DHT22;38507;53.132;6.394;2023-03-31T16:10:39;12.80;99.90
52209;DHT22;38507;53.132;6.394;2023-03-31T16:13:10;12.80;99.90
52209;DHT22;38507;53.132;6.394;2023-03-31T16:15:44;12.90;99.90
52209;DHT22;38507;53.132;6.394;2023-03-31T16:18:14;12.80;99.90
52209;DHT22;38507;53.132;6.394;2023-03-31T16:20:56;12.80;99.90
52209;DHT22;38507;53.132;6.394;2023-03-31T16:23:25;12.80;99.90
52209;DHT22;38507;53.132;6.394;2023-03-31T16:25:51;12.90;99.90
52209;DHT22;38507;53.132;6.394;2023-03-31T16:28:24;12.60;99.90
52209;DHT22;38507;53.132;6.394;2023-03-31T16:30:50;12.60;99.90
52209;DHT22;38507;53.132;6.394;2023-03-31T16:33:18;12.60;99.90
52209;DHT22;38507;53.132;6.394;2023-03-31T16:35:49;12.50;99.90
52209;DHT22;38507;53.132;6.394;2023-03-31T16:38:26;12.50;99.90
52209;DHT22;38507;53.132;6.394;2023-03-31T16:40:53;12.50;99.90
52209;DHT22;38507;53.132;6.394;2023-03-31T16:43:25;12.50;99.90
52209;DHT22;38507;53.132;6.394;2023-03-31T16:48:21;12.50;99.90
52209;DHT22;38507;53.132;6.394;2023-03-31T16:50:49;12.40;99.90
52209;DHT22;38507;53.132;6.394;2023-03-31T16:53:18;12.40;99.90
52209;DHT22;38507;53.132;6.394;2023-03-31T16:55:44;12.30;99.90
52209;DHT22;38507;53.132;6.394;2023-03-31T16:58:10;12.30;99.90
52209;DHT22;38507;53.132;6.394;2023-03-31T17:00:36;12.30;99.90
52209;DHT22;38507;53.132;6.394;2023-03-31T17:03:05;12.30;99.90
52209;DHT22;38507;53.132;6.394;2023-03-31T17:05:36;12.30;99.90
52209;DHT22;38507;53.132;6.394;2023-03-31T17:08:02;12.20;99.90
52209;DHT22;38507;53.132;6.394;2023-03-31T17:10:28;12.30;99.90
52209;DHT22;38507;53.132;6.394;2023-03-31T17:12:53;12.30;99.90
52209;DHT22;38507;53.132;6.394;2023-03-31T17:15:20;12.20;99.90
52209;DHT22;38507;53.132;6.394;2023-03-31T17:17:47;12.20;99.90
52209;DHT22;38507;53.132;6.394;2023-03-31T17:20:12;12.20;99.90
52209;DHT22;38507;53.132;6.394;2023-03-31T17:22:38;12.10;99.90
52209;DHT22;38507;53.132;6.394;2023-03-31T17:25:04;12.10;99.90
52209;DHT22;38507;53.132;6.394;2023-03-31T17:27:32;12.10;99.90
52209;DHT22;38507;53.132;6.394;2023-03-31T17:29:58;12.10;99.90
52209;DHT22;38507;53.132;6.394;2023-03-31T17:32:24;12.10;99.90
52209;DHT22;38507;53.132;6.394;2023-03-31T17:34:50;12.00;99.90
52209;DHT22;38507;53.132;6.394;2023-03-31T17:37:17;12.00;99.90
52209;DHT22;38507;53.132;6.394;2023-03-31T17:39:44;12.00;99.90
52209;DHT22;38507;53.132;6.394;2023-03-31T17:42:10;11.90;99.90
52209;DHT22;38507;53.132;6.394;2023-03-31T17:44:38;12.10;99.90
52209;DHT22;38507;53.132;6.394;2023-03-31T17:47:04;11.80;99.90
52209;DHT22;38507;53.132;6.394;2023-03-31T17:49:30;11.90;99.90
52209;DHT22;38507;53.132;6.394;2023-03-31T17:51:57;11.80;99.90
52209;DHT22;38507;53.132;6.394;2023-03-31T17:54:23;12.00;99.90
52209;DHT22;38507;53.132;6.394;2023-03-31T17:56:49;11.70;99.90
52209;DHT22;38507;53.132;6.394;2023-03-31T17:59:16;11.60;99.90
52209;DHT22;38507;53.132;6.394;2023-03-31T18:01:43;11.50;99.90
52209;DHT22;38507;53.132;6.394;2023-03-31T18:04:09;11.40;99.90
52209;DHT22;38507;53.132;6.394;2023-03-31T18:06:34;11.30;99.90
52209;DHT22;38507;53.132;6.394;2023-03-31T18:09:00;10.90;99.90
52209;DHT22;38507;53.132;6.394;2023-03-31T18:11:26;11.20;99.90
52209;DHT22;38507;53.132;6.394;2023-03-31T18:13:52;10.80;99.90
52209;DHT22;38507;53.132;6.394;2023-03-31T18:16:18;10.70;99.90
52209;DHT22;38507;53.132;6.394;2023-03-31T18:18:44;10.70;99.90
52209;DHT22;38507;53.132;6.394;2023-03-31T18:21:11;10.60;99.90
52209;DHT22;38507;53.132;6.394;2023-03-31T18:23:37;10.70;99.90
52209;DHT22;38507;53.132;6.394;2023-03-31T18:26:07;10.50;99.90
52209;DHT22;38507;53.132;6.394;2023-03-31T18:28:33;10.70;99.90
52209;DHT22;38507;53.132;6.394;2023-03-31T18:31:04;10.70;99.90